Time;durP1;ratioP1;P1;durP2;ratioP2;P2;SDS_P1;SDS_P2;PMS_P1;PMS_P2;Temp;Humidity;BMP_temperature;BMP_pressure;BME280_temperature;BME280_humidity;BME280_pressure;Samples;Min_cycle;Max_cycle;Signal;HPM_P1;HPM_P2
2021/05/09 00:00:49;;;;;;;0.65;0.50;;;;;;;13.76;61.00;98472.75;3524369;28;20124;-71
2021/05/09 00:02:30;;;;;;;0.57;0.38;;;;;;;13.73;60.98;98470.56;3524487;28;20036;-72
2021/05/09 00:04:11;;;;;;;2.78;0.60;;;;;;;13.78;61.04;98478.66;3524421;28;20414;-72
2021/05/09 00:05:52;;;;;;;0.40;0.30;;;;;;;13.82;60.72;98482.47;3524686;28;20039;-75
2021/05/09 00:07:33;;;;;;;0.60;0.50;;;;;;;13.83;60.57;98480.63;3509357;28;20135;-72
2021/05/09 00:09:13;;;;;;;0.98;0.55;;;;;;;13.81;60.40;98472.84;3521434;28;20052;-70
2021/05/09 00:10:54;;;;;;;0.95;0.52;;;;;;;13.78;60.25;98478.66;3524390;28;20043;-71
2021/05/09 00:12:40;;;;;;;1.45;0.57;;;;;;;13.74;60.40;98485.59;3524369;28;20054;-72
2021/05/09 00:14:22;;;;;;;0.40;0.40;;;;;;;13.80;60.46;98491.81;3524559;28;20485;-71
2021/05/09 00:16:04;;;;;;;0.47;0.47;;;;;;;13.80;59.92;98481.91;3523447;28;20084;-72
2021/05/09 00:17:44;;;;;;;0.40;0.40;;;;;;;13.78;59.99;98484.03;3524235;28;20043;-70
2021/05/09 00:19:25;;;;;;;0.50;0.40;;;;;;;13.74;59.93;98496.28;3524440;28;20127;-72
2021/05/09 00:21:06;;;;;;;0.40;0.40;;;;;;;13.70;59.79;98497.81;3524197;28;20095;-72
2021/05/09 00:22:47;;;;;;;0.98;0.68;;;;;;;13.66;59.74;98492.16;3524215;28;20047;-71
2021/05/09 00:24:28;;;;;;;0.68;0.57;;;;;;;13.65;59.69;98497.75;3524529;28;20075;-72
2021/05/09 00:26:08;;;;;;;0.38;0.38;;;;;;;13.70;59.94;98501.31;3522931;28;20043;-72
2021/05/09 00:27:49;;;;;;;0.70;0.50;;;;;;;13.80;59.89;98503.34;3524007;28;20039;-73
2021/05/09 00:29:31;;;;;;;;;;;;;;;13.95;59.76;98510.81;3524518;28;20552;-70
2021/05/09 00:31:17;;;;;;;0.93;0.40;;;;;;;13.96;59.37;98512.41;3524027;28;20378;-72
2021/05/09 00:32:58;;;;;;;0.60;0.50;;;;;;;14.02;59.31;98497.22;3524097;28;20054;-71
2021/05/09 00:34:38;;;;;;;0.40;0.40;;;;;;;14.03;58.91;98507.69;3523355;28;20041;-71
2021/05/09 00:36:26;;;;;;;0.60;0.45;;;;;;;14.09;58.96;98505.91;3524023;28;20130;-72
2021/05/09 00:38:07;;;;;;;0.70;0.50;;;;;;;14.15;58.70;98510.28;3524019;28;20040;-71
2021/05/09 00:39:48;;;;;;;0.93;0.57;;;;;;;14.22;58.32;98516.25;3524324;28;20127;-71
2021/05/09 00:41:28;;;;;;;2.22;0.73;;;;;;;14.19;57.95;98522.13;3524304;28;20044;-71
2021/05/09 00:43:09;;;;;;;0.40;0.40;;;;;;;14.12;57.97;98525.00;3524199;28;20069;-71
2021/05/09 00:44:50;;;;;;;0.98;0.50;;;;;;;14.12;57.96;98522.31;3523132;28;20067;-72
2021/05/09 00:46:31;;;;;;;0.45;0.45;;;;;;;14.12;57.72;98521.47;3524034;28;20088;-71
2021/05/09 00:48:12;;;;;;;2.75;0.50;;;;;;;14.08;57.63;98520.38;3524240;28;20092;-72
2021/05/09 00:49:52;;;;;;;0.60;0.60;;;;;;;14.07;57.73;98524.91;3526881;28;20047;-72
2021/05/09 00:51:33;;;;;;;0.30;0.30;;;;;;;14.10;57.68;98539.69;3526764;28;20135;-72
2021/05/09 00:53:15;;;;;;;0.50;0.50;;;;;;;14.11;57.29;98539.44;3527026;28;20047;-71
2021/05/09 00:54:58;;;;;;;2.38;0.60;;;;;;;14.10;57.30;98523.63;3525980;28;20050;-70
2021/05/09 00:56:39;;;;;;;4.22;0.50;;;;;;;14.15;57.24;98521.81;3523485;28;20046;-72
2021/05/09 00:58:21;;;;;;;0.45;0.45;;;;;;;14.21;57.10;98528.03;3509249;28;20082;-71
2021/05/09 01:00:05;;;;;;;0.95;0.50;;;;;;;14.21;56.59;98536.09;3506621;28;20044;-72
2021/05/09 01:01:48;;;;;;;3.33;0.93;;;;;;;14.20;56.78;98531.81;3521844;28;20075;-71
2021/05/09 01:03:30;;;;;;;0.60;0.47;;;;;;;14.12;56.85;98535.72;3526629;28;20054;-72
2021/05/09 01:05:12;;;;;;;0.60;0.60;;;;;;;14.05;56.94;98543.09;3511782;28;20106;-71
2021/05/09 01:06:53;;;;;;;0.40;0.40;;;;;;;14.00;56.90;98550.25;3520580;28;20401;-71
2021/05/09 01:08:37;;;;;;;0.70;0.52;;;;;;;13.94;56.98;98555.53;3522906;28;20039;-73
2021/05/09 01:10:19;;;;;;;0.50;0.50;;;;;;;13.94;57.05;98558.22;3523433;28;20555;-72
2021/05/09 01:11:59;;;;;;;0.60;0.60;;;;;;;13.94;57.09;98562.75;3526506;28;20043;-72
2021/05/09 01:13:40;;;;;;;0.40;0.40;;;;;;;13.99;57.14;98562.00;3525719;28;20076;-72
2021/05/09 01:15:22;;;;;;;0.47;0.47;;;;;;;14.06;57.02;98570.69;3525867;28;20056;-71
2021/05/09 01:17:04;;;;;;;0.47;0.40;;;;;;;14.14;56.82;98573.75;3511619;28;20126;-70
2021/05/09 01:18:44;;;;;;;0.40;0.40;;;;;;;14.16;56.67;98579.69;3520236;28;20143;-71
2021/05/09 01:20:29;;;;;;;0.47;0.40;;;;;;;14.19;56.43;98581.06;3526433;28;20035;-72
2021/05/09 01:22:11;;;;;;;0.63;0.55;;;;;;;14.23;56.49;98595.63;3526606;28;20036;-72
2021/05/09 01:23:52;;;;;;;0.82;0.40;;;;;;;14.22;56.29;98596.66;3525472;28;20127;-71
2021/05/09 01:25:33;;;;;;;0.73;0.50;;;;;;;14.17;56.20;98596.56;3526244;28;20521;-72
2021/05/09 01:27:14;;;;;;;0.47;0.47;;;;;;;14.15;56.37;98596.03;3525541;28;20050;-71
2021/05/09 01:28:55;;;;;;;1.90;0.50;;;;;;;14.12;56.17;98593.81;3525757;28;20044;-72
2021/05/09 01:30:36;;;;;;;0.80;0.80;;;;;;;14.06;56.17;98592.13;3511358;28;20407;-72
2021/05/09 01:32:17;;;;;;;0.80;0.70;;;;;;;14.06;56.27;98600.97;3519870;28;20072;-70
2021/05/09 01:33:58;;;;;;;1.50;0.70;;;;;;;14.08;56.36;98601.53;3526223;28;20698;-71
2021/05/09 01:35:39;;;;;;;0.50;0.50;;;;;;;14.13;56.39;98592.78;3525520;28;20449;-72
2021/05/09 01:37:19;;;;;;;0.73;0.40;;;;;;;14.22;55.99;98593.97;3526469;28;20077;-73
2021/05/09 01:39:00;;;;;;;0.60;0.60;;;;;;;14.25;55.93;98593.50;3526324;28;20105;-71
2021/05/09 01:40:41;;;;;;;0.43;0.40;;;;;;;14.22;55.85;98598.53;3525210;28;20094;-73
2021/05/09 01:42:22;;;;;;;0.55;0.55;;;;;;;14.11;55.97;98594.88;3526172;28;20036;-71
2021/05/09 01:44:03;;;;;;;0.98;0.57;;;;;;;14.03;56.02;98603.34;3526426;28;20048;-71
2021/05/09 01:45:44;;;;;;;0.60;0.50;;;;;;;13.99;56.27;98597.63;3526555;28;20079;-71
2021/05/09 01:47:26;;;;;;;0.90;0.40;;;;;;;13.98;56.37;98605.94;3525181;28;20047;-73
2021/05/09 01:49:07;;;;;;;0.52;0.43;;;;;;;13.96;56.58;98598.97;3522643;28;20047;-72
2021/05/09 01:50:48;;;;;;;0.40;0.40;;;;;;;14.00;56.55;98593.13;3522359;28;20039;-70
2021/05/09 01:52:28;;;;;;;0.40;0.40;;;;;;;14.05;56.33;98595.88;3526267;28;20047;-71
2021/05/09 01:54:10;;;;;;;2.17;0.40;;;;;;;14.13;56.27;98598.94;3526423;28;20047;-71
2021/05/09 01:55:51;;;;;;;1.45;0.45;;;;;;;14.26;56.05;98603.16;3526281;28;20047;-69
2021/05/09 01:57:36;;;;;;;0.30;0.30;;;;;;;14.30;55.77;98609.66;3526062;27;20141;-71
2021/05/09 01:59:18;;;;;;;0.57;0.50;;;;;;;14.33;55.77;98603.81;3525343;28;20047;-72
2021/05/09 02:01:02;;;;;;;0.63;0.50;;;;;;;14.28;55.63;98611.78;3522639;28;20043;-73
2021/05/09 02:02:53;;;;;;;0.40;0.40;;;;;;;14.22;55.55;98610.06;3523743;28;20445;-71
2021/05/09 02:04:40;;;;;;;0.40;0.40;;;;;;;14.03;56.08;98608.69;3501669;28;20430;-72
2021/05/09 02:06:25;;;;;;;0.70;0.43;;;;;;;13.93;56.30;98618.19;3520733;28;20089;-72
2021/05/09 02:08:06;;;;;;;0.67;0.40;;;;;;;13.80;56.54;98618.50;3512888;28;20044;-70
2021/05/09 02:09:49;;;;;;;0.55;0.50;;;;;;;13.78;56.66;98628.63;3511611;28;20297;-70
2021/05/09 02:11:31;;;;;;;0.63;0.40;;;;;;;13.87;56.78;98629.88;3526815;28;20050;-72
2021/05/09 02:13:16;;;;;;;1.08;0.38;;;;;;;13.93;56.60;98630.78;3527400;27;20078;-71
2021/05/09 02:15:08;;;;;;;0.60;0.50;;;;;;;13.91;56.36;98616.78;3525923;28;20058;-70
2021/05/09 02:16:50;;;;;;;0.50;0.40;;;;;;;14.00;56.55;98633.31;3526403;28;20419;-71
2021/05/09 02:18:33;;;;;;;1.52;0.47;;;;;;;13.99;56.20;98635.13;3521912;28;20039;-72
2021/05/09 02:20:15;;;;;;;0.68;0.60;;;;;;;14.02;56.12;98647.25;3511440;28;20077;-72
2021/05/09 02:21:56;;;;;;;2.27;1.27;;;;;;;14.06;56.19;98651.88;3509401;28;20097;-72
2021/05/09 02:23:36;;;;;;;2.65;0.98;;;;;;;14.13;56.01;98646.38;3514006;28;20819;-70
2021/05/09 02:25:18;;;;;;;0.80;0.43;;;;;;;14.16;55.96;98640.53;3520649;28;20524;-70
2021/05/09 02:26:59;;;;;;;0.70;0.45;;;;;;;14.17;55.69;98636.78;3503427;28;20047;-70
2021/05/09 02:28:42;;;;;;;0.47;0.47;;;;;;;14.17;55.64;98644.81;3507097;28;20538;-71
2021/05/09 02:30:24;;;;;;;1.20;0.50;;;;;;;14.17;55.73;98652.84;3519598;28;20051;-70
2021/05/09 02:32:06;;;;;;;0.40;0.40;;;;;;;14.18;55.70;98663.34;3517787;28;20040;-70
2021/05/09 02:33:49;;;;;;;7.70;0.70;;;;;;;14.13;55.59;98668.63;3517523;28;20043;-71
2021/05/09 02:35:32;;;;;;;0.50;0.50;;;;;;;14.11;55.66;98667.22;3497772;28;20040;-70
2021/05/09 02:37:13;;;;;;;0.68;0.50;;;;;;;14.09;55.70;98672.00;3508179;28;20141;-71
2021/05/09 02:38:54;;;;;;;1.05;0.63;;;;;;;14.01;55.70;98667.88;3513725;28;20522;-71
2021/05/09 02:40:35;;;;;;;1.00;0.50;;;;;;;13.99;55.80;98671.84;3518938;28;20609;-70
2021/05/09 02:42:16;;;;;;;1.08;0.50;;;;;;;13.94;55.94;98676.06;3517726;28;20434;-71
2021/05/09 02:43:57;;;;;;;0.93;0.88;;;;;;;13.90;55.80;98674.13;3519356;28;20040;-70
2021/05/09 02:45:38;;;;;;;1.17;0.47;;;;;;;13.96;55.86;98694.56;3509258;28;20568;-70
2021/05/09 02:47:30;;;;;;;0.50;0.50;;;;;;;13.91;55.88;98676.56;3516768;28;20040;-70
2021/05/09 02:49:18;;;;;;;1.65;0.50;;;;;;;13.95;55.79;98693.75;3520952;28;20123;-70
2021/05/09 02:50:59;;;;;;;0.57;0.57;;;;;;;13.85;55.75;98695.44;3518189;28;20237;-71
2021/05/09 02:52:41;;;;;;;1.38;0.70;;;;;;;13.75;55.96;98693.38;3516542;28;20485;-70
2021/05/09 02:54:22;;;;;;;0.40;0.38;;;;;;;13.67;56.08;98696.47;3521625;28;20391;-72
2021/05/09 02:56:05;;;;;;;2.70;0.80;;;;;;;13.63;56.18;98700.66;3517032;28;20036;-71
2021/05/09 02:57:45;;;;;;;1.73;0.73;;;;;;;13.65;56.34;98703.91;3511189;28;20063;-70
2021/05/09 02:59:26;;;;;;;0.63;0.60;;;;;;;13.69;56.28;98703.19;3514183;28;20563;-70
2021/05/09 03:01:07;;;;;;;0.70;0.70;;;;;;;13.69;56.15;98705.06;3524428;28;20068;-72
2021/05/09 03:02:48;;;;;;;1.13;0.88;;;;;;;13.68;56.29;98714.13;3522089;28;20048;-71
2021/05/09 03:04:33;;;;;;;1.20;0.60;;;;;;;13.66;56.25;98711.72;3522862;28;20035;-70
2021/05/09 03:06:14;;;;;;;0.60;0.60;;;;;;;13.64;56.15;98707.66;3519523;28;20039;-71
2021/05/09 03:07:55;;;;;;;0.50;0.50;;;;;;;13.67;56.22;98717.88;3518496;28;20571;-71
2021/05/09 03:09:35;;;;;;;0.63;0.50;;;;;;;13.67;56.17;98707.97;3515842;28;20052;-71
2021/05/09 03:11:16;;;;;;;3.22;1.10;;;;;;;13.82;56.14;98709.31;3512901;28;20521;-72
2021/05/09 03:12:58;;;;;;;0.60;0.60;;;;;;;13.96;55.81;98721.34;3502548;28;20041;-71
2021/05/09 03:14:40;;;;;;;1.00;0.53;;;;;;;14.04;55.37;98731.69;3492660;28;20046;-69
2021/05/09 03:16:20;;;;;;;0.57;0.57;;;;;;;14.10;55.06;98733.41;3510927;28;20565;-71
2021/05/09 03:18:01;;;;;;;1.95;0.82;;;;;;;14.17;54.90;98734.09;3512587;28;20101;-71
2021/05/09 03:19:42;;;;;;;1.00;0.45;;;;;;;14.22;54.61;98741.38;3521943;28;20498;-71
2021/05/09 03:21:23;;;;;;;0.65;0.45;;;;;;;14.21;54.39;98731.72;3516660;28;20383;-69
2021/05/09 03:23:06;;;;;;;0.60;0.60;;;;;;;14.16;54.41;98737.00;3519944;28;20086;-71
2021/05/09 03:24:47;;;;;;;0.50;0.50;;;;;;;14.15;54.59;98730.03;3519558;28;20184;-72
2021/05/09 03:26:32;;;;;;;1.83;0.60;;;;;;;14.18;54.52;98741.06;3513685;28;20143;-70
2021/05/09 03:28:13;;;;;;;1.75;0.60;;;;;;;14.19;54.29;98736.50;3519246;28;20110;-73
2021/05/09 03:29:54;;;;;;;0.80;0.50;;;;;;;14.20;54.23;98732.78;3517626;28;20040;-71
2021/05/09 03:31:35;;;;;;;0.55;0.55;;;;;;;14.21;54.11;98744.31;3523781;28;20042;-72
2021/05/09 03:33:16;;;;;;;0.60;0.60;;;;;;;14.25;54.25;98740.09;3518321;27;20493;-71
2021/05/09 03:34:57;;;;;;;0.50;0.50;;;;;;;14.38;54.03;98735.25;3518266;28;20035;-71
2021/05/09 03:36:37;;;;;;;1.08;0.50;;;;;;;14.45;53.73;98744.97;3517922;28;20036;-71
2021/05/09 03:38:18;;;;;;;1.25;0.80;;;;;;;14.53;53.44;98747.28;3519432;28;20402;-71
2021/05/09 03:39:58;;;;;;;0.80;0.80;;;;;;;14.53;53.35;98760.69;3522729;28;20468;-69
2021/05/09 03:41:39;;;;;;;0.60;0.60;;;;;;;14.49;53.28;98756.84;3512493;28;20035;-71
2021/05/09 03:43:20;;;;;;;0.77;0.60;;;;;;;14.41;53.24;98760.75;3520158;28;20062;-69
2021/05/09 03:45:01;;;;;;;0.73;0.63;;;;;;;14.40;53.42;98765.31;3522872;28;20131;-72
2021/05/09 03:46:42;;;;;;;1.00;1.00;;;;;;;14.32;53.44;98767.53;3516622;28;20414;-72
2021/05/09 03:48:23;;;;;;;0.50;0.50;;;;;;;14.28;53.54;98761.88;3521768;28;20042;-73
2021/05/09 03:50:04;;;;;;;3.03;0.57;;;;;;;14.24;53.60;98771.44;3517093;28;20040;-72
2021/05/09 03:51:45;;;;;;;0.75;0.60;;;;;;;14.18;53.68;98764.38;3521182;28;20096;-71
2021/05/09 03:53:28;;;;;;;1.55;0.75;;;;;;;14.14;53.92;98768.56;3522949;28;20145;-70
2021/05/09 03:55:09;;;;;;;1.13;0.65;;;;;;;14.12;54.03;98776.88;3518713;28;20429;-71
2021/05/09 03:56:50;;;;;;;1.42;0.75;;;;;;;14.17;53.92;98771.59;3517083;28;20062;-70
2021/05/09 03:58:31;;;;;;;0.52;0.52;;;;;;;14.17;53.95;98776.97;3518276;28;20531;-71
2021/05/09 04:00:12;;;;;;;2.78;1.05;;;;;;;14.13;53.88;98775.00;3520616;28;20035;-70
2021/05/09 04:01:57;;;;;;;1.48;0.80;;;;;;;14.11;53.94;98777.91;3515859;28;20460;-70
2021/05/09 04:03:38;;;;;;;0.93;0.65;;;;;;;14.11;53.96;98772.53;3516621;28;20126;-71
2021/05/09 04:05:19;;;;;;;1.95;0.68;;;;;;;14.14;53.87;98776.59;3515842;28;20040;-70
2021/05/09 04:06:59;;;;;;;0.70;0.50;;;;;;;14.14;53.80;98787.31;3521613;28;20480;-69
2021/05/09 04:08:40;;;;;;;1.40;0.80;;;;;;;14.05;54.07;98792.28;3518982;28;20044;-70
2021/05/09 04:10:21;;;;;;;2.90;1.60;;;;;;;14.00;53.97;98792.16;3514792;28;20035;-73
2021/05/09 04:12:05;;;;;;;2.78;0.98;;;;;;;13.97;53.97;98808.72;3518948;28;20461;-72
2021/05/09 04:13:46;;;;;;;1.55;1.00;;;;;;;13.89;54.06;98793.84;3517713;28;20411;-72
2021/05/09 04:15:27;;;;;;;1.63;0.93;;;;;;;13.85;54.24;98791.88;3521380;28;20035;-70
2021/05/09 04:17:08;;;;;;;1.23;0.90;;;;;;;13.82;54.08;98803.88;3521545;28;20130;-71
2021/05/09 04:18:49;;;;;;;1.65;0.52;;;;;;;13.90;54.16;98813.41;3516475;28;20044;-70
2021/05/09 04:20:30;;;;;;;1.10;0.90;;;;;;;13.90;54.06;98808.03;3512965;28;20510;-71
2021/05/09 04:22:10;;;;;;;1.15;0.90;;;;;;;13.90;53.85;98814.22;3516231;28;20046;-70
2021/05/09 04:23:51;;;;;;;1.42;0.75;;;;;;;13.87;53.97;98814.69;3522260;28;20078;-71
2021/05/09 04:25:32;;;;;;;1.30;1.00;;;;;;;13.80;53.66;98818.56;3512847;28;20036;-71
2021/05/09 04:27:13;;;;;;;4.53;3.05;;;;;;;13.73;53.68;98826.72;3518568;28;20123;-71
2021/05/09 04:28:53;;;;;;;1.85;1.10;;;;;;;13.68;53.87;98830.13;3520114;28;20043;-71
2021/05/09 04:30:34;;;;;;;1.30;0.73;;;;;;;13.66;53.96;98834.09;3517904;28;20494;-71
2021/05/09 04:32:15;;;;;;;0.98;0.70;;;;;;;13.61;53.88;98831.28;3515323;28;20044;-70
2021/05/09 04:33:55;;;;;;;2.45;0.65;;;;;;;13.53;53.70;98843.97;3517473;28;20039;-70
2021/05/09 04:35:40;;;;;;;0.65;0.50;;;;;;;13.48;53.82;98843.06;3517665;28;20145;-72
2021/05/09 04:37:20;;;;;;;0.55;0.50;;;;;;;13.41;53.87;98853.88;3517268;28;20044;-72
2021/05/09 04:39:02;;;;;;;4.32;0.90;;;;;;;13.41;53.95;98851.19;3511378;28;20134;-71
2021/05/09 04:40:43;;;;;;;;;;;;;;;13.58;53.73;98863.88;3510024;28;20425;-71
2021/05/09 04:42:24;;;;;;;0.80;0.68;;;;;;;13.53;53.94;98865.41;3515404;28;19958;-72
2021/05/09 04:44:05;;;;;;;1.63;1.00;;;;;;;13.60;53.66;98862.59;3515428;28;20132;-71
2021/05/09 04:45:48;;;;;;;1.20;0.70;;;;;;;13.61;53.26;98863.41;3517043;28;20042;-71
2021/05/09 04:47:29;;;;;;;1.55;0.70;;;;;;;13.69;53.18;98879.13;3518911;28;20088;-70
2021/05/09 04:49:10;;;;;;;1.00;0.65;;;;;;;13.67;52.99;98874.00;3497200;28;20044;-71
2021/05/09 04:50:51;;;;;;;0.75;0.75;;;;;;;13.65;53.16;98876.09;3515893;28;20052;-71
2021/05/09 04:52:32;;;;;;;0.80;0.63;;;;;;;13.70;53.33;98875.38;3511641;28;20024;-71
2021/05/09 04:54:13;;;;;;;0.95;0.60;;;;;;;13.76;53.08;98874.47;3513243;28;20050;-70
2021/05/09 04:55:55;;;;;;;1.25;0.60;;;;;;;13.85;52.85;98881.06;3517302;28;20042;-71
2021/05/09 04:57:35;;;;;;;;;;;;;;;13.99;52.87;98873.56;3513495;28;20036;-69
2021/05/09 04:59:16;;;;;;;0.50;0.50;;;;;;;13.98;52.42;98889.91;3520109;28;20346;-73
2021/05/09 05:01:00;;;;;;;1.25;0.63;;;;;;;13.98;52.39;98879.19;3516562;28;20520;-70
2021/05/09 05:02:47;;;;;;;2.65;0.70;;;;;;;14.07;52.06;98883.13;3515836;28;20067;-70
2021/05/09 05:04:28;;;;;;;1.05;0.65;;;;;;;14.06;51.92;98887.66;3520035;28;20567;-71
2021/05/09 05:06:09;;;;;;;0.90;0.50;;;;;;;14.05;52.10;98896.75;3512737;28;20036;-74
2021/05/09 05:07:50;;;;;;;0.50;0.50;;;;;;;14.07;51.92;98901.88;3519409;28;20126;-70
2021/05/09 05:09:31;;;;;;;1.40;0.60;;;;;;;14.01;51.57;98900.16;3515946;27;20051;-71
2021/05/09 05:11:12;;;;;;;1.02;0.68;;;;;;;14.07;51.67;98899.19;3519833;28;20039;-71
2021/05/09 05:12:52;;;;;;;0.80;0.80;;;;;;;14.11;51.42;98906.53;3517119;28;20417;-71
2021/05/09 05:14:33;;;;;;;1.02;0.60;;;;;;;14.14;51.33;98910.59;3521744;28;20036;-69
2021/05/09 05:16:15;;;;;;;1.80;1.10;;;;;;;14.13;51.24;98900.94;3508664;28;20050;-72
2021/05/09 05:17:56;;;;;;;1.03;1.00;;;;;;;14.13;51.23;98907.09;3511369;28;20040;-70
2021/05/09 05:19:37;;;;;;;1.25;1.08;;;;;;;14.16;50.86;98919.22;3516422;28;20289;-70
2021/05/09 05:21:18;;;;;;;2.60;1.20;;;;;;;14.13;51.02;98911.66;3515985;28;20047;-71
2021/05/09 05:22:58;;;;;;;0.70;0.70;;;;;;;14.12;50.94;98912.69;3523828;28;20052;-69
2021/05/09 05:24:39;;;;;;;1.45;0.73;;;;;;;14.14;50.93;98924.00;3518239;28;20040;-70
2021/05/09 05:26:20;;;;;;;2.03;0.60;;;;;;;14.11;50.87;98924.47;3512041;28;20171;-71
2021/05/09 05:28:01;;;;;;;1.63;0.75;;;;;;;14.04;51.01;98916.56;3511308;28;20388;-71
2021/05/09 05:29:42;;;;;;;1.13;0.65;;;;;;;14.00;51.07;98926.13;3519166;28;20040;-71
2021/05/09 05:31:22;;;;;;;1.17;0.45;;;;;;;14.01;51.24;98927.75;3514829;28;20125;-70
2021/05/09 05:33:04;;;;;;;1.35;0.60;;;;;;;14.01;51.13;98937.66;3518275;28;20047;-71
2021/05/09 05:34:45;;;;;;;1.17;0.90;;;;;;;13.98;51.04;98930.91;3511597;28;20389;-71
2021/05/09 05:36:26;;;;;;;0.50;0.50;;;;;;;13.90;51.06;98942.78;3520700;28;20073;-72
2021/05/09 05:38:06;;;;;;;3.50;0.63;;;;;;;13.74;51.32;98948.88;3519691;28;20043;-71
2021/05/09 05:39:47;;;;;;;0.70;0.50;;;;;;;13.62;51.60;98962.25;3513650;28;20043;-70
2021/05/09 05:41:28;;;;;;;0.60;0.60;;;;;;;13.60;51.68;98968.88;3514221;28;20446;-72
2021/05/09 05:43:08;;;;;;;0.55;0.55;;;;;;;13.59;51.90;98962.72;3513050;28;20039;-70
2021/05/09 05:44:49;;;;;;;1.17;0.80;;;;;;;13.61;51.63;98959.81;3525440;28;20040;-71
2021/05/09 05:46:30;;;;;;;1.08;0.70;;;;;;;13.64;51.99;98967.38;3522866;28;20047;-71
2021/05/09 05:48:11;;;;;;;0.57;0.40;;;;;;;13.70;51.72;98974.47;3514781;28;20043;-71
2021/05/09 05:49:55;;;;;;;0.82;0.73;;;;;;;13.80;51.50;98968.53;3518339;28;20518;-71
2021/05/09 05:51:36;;;;;;;0.50;0.50;;;;;;;13.81;51.29;98968.31;3513200;28;20024;-70
2021/05/09 05:53:17;;;;;;;1.55;0.55;;;;;;;13.81;51.19;98979.03;3520327;28;20070;-70
2021/05/09 05:54:59;;;;;;;0.95;0.57;;;;;;;13.85;51.18;99009.66;3521374;28;20383;-71
2021/05/09 05:56:41;;;;;;;0.80;0.80;;;;;;;13.86;50.98;98999.75;3513779;28;20130;-69
2021/05/09 05:58:22;;;;;;;2.35;0.77;;;;;;;13.85;51.11;99012.31;3517386;28;20138;-71
2021/05/09 06:00:04;;;;;;;0.57;0.50;;;;;;;13.82;51.10;99015.47;3516765;28;20038;-72
2021/05/09 06:01:47;;;;;;;4.03;0.60;;;;;;;13.75;51.04;99020.13;3514693;28;20071;-72
2021/05/09 06:03:29;;;;;;;0.70;0.70;;;;;;;13.67;51.29;99025.81;3520977;28;20036;-71
2021/05/09 06:05:13;;;;;;;1.13;0.70;;;;;;;13.62;51.37;99031.03;3516709;28;20040;-73
2021/05/09 06:06:54;;;;;;;1.27;0.75;;;;;;;13.65;51.51;99033.25;3517631;28;20036;-69
2021/05/09 06:08:35;;;;;;;0.65;0.65;;;;;;;13.59;51.10;99024.28;3514048;28;20039;-71
2021/05/09 06:10:15;;;;;;;1.90;1.30;;;;;;;13.53;51.18;99027.91;3518198;28;20047;-70
2021/05/09 06:11:56;;;;;;;2.10;0.70;;;;;;;13.50;51.11;99034.53;3518320;28;20494;-70
2021/05/09 06:13:37;;;;;;;1.00;0.90;;;;;;;13.37;51.10;99029.38;3522502;28;20042;-70
2021/05/09 06:15:17;;;;;;;1.25;1.00;;;;;;;13.41;51.49;99038.56;3521326;28;20176;-71
2021/05/09 06:16:58;;;;;;;2.42;0.85;;;;;;;13.43;51.29;99036.50;3516244;28;20067;-70
2021/05/09 06:18:39;;;;;;;0.90;0.60;;;;;;;13.51;51.35;99036.16;3521596;28;20036;-70
2021/05/09 06:20:20;;;;;;;3.13;0.70;;;;;;;13.68;51.29;99030.13;3520334;27;20028;-70
2021/05/09 06:22:01;;;;;;;2.78;0.93;;;;;;;13.79;50.71;99026.66;3523424;28;20081;-74
2021/05/09 06:23:42;;;;;;;1.58;0.80;;;;;;;13.89;50.54;99036.81;3513018;28;20138;-70
2021/05/09 06:25:22;;;;;;;1.73;1.30;;;;;;;14.02;50.23;99031.22;3515941;28;20120;-70
2021/05/09 06:27:04;;;;;;;2.20;1.42;;;;;;;14.04;50.09;99029.09;3516577;28;20085;-71
2021/05/09 06:28:44;;;;;;;3.10;1.07;;;;;;;14.05;49.89;99033.41;3520649;28;20570;-71
2021/05/09 06:30:25;;;;;;;1.23;0.82;;;;;;;13.98;49.84;99027.34;3519670;28;20043;-73
2021/05/09 06:32:06;;;;;;;1.90;1.70;;;;;;;13.92;50.05;99031.78;3521312;28;20040;-71
2021/05/09 06:33:47;;;;;;;2.10;1.60;;;;;;;13.91;50.23;99032.84;3518276;28;20036;-71
2021/05/09 06:35:28;;;;;;;1.65;1.08;;;;;;;13.89;50.09;99034.94;3514905;28;20082;-72
2021/05/09 06:37:10;;;;;;;2.05;1.10;;;;;;;13.84;50.19;99040.16;3513636;28;20044;-71
2021/05/09 06:38:51;;;;;;;1.65;0.88;;;;;;;13.75;50.46;99036.19;3517954;28;20067;-72
2021/05/09 06:40:32;;;;;;;3.53;1.35;;;;;;;13.67;50.55;99037.34;3513449;28;20036;-70
2021/05/09 06:42:12;;;;;;;1.95;1.10;;;;;;;13.65;50.50;99041.28;3519474;28;20042;-70
2021/05/09 06:43:56;;;;;;;2.30;1.00;;;;;;;13.61;50.56;99051.66;3520320;28;21628;-71
2021/05/09 06:45:37;;;;;;;3.65;1.58;;;;;;;13.57;50.59;99060.38;3513884;28;20040;-71
2021/05/09 06:47:18;;;;;;;2.38;0.90;;;;;;;13.50;50.64;99063.97;3512167;28;20510;-70
2021/05/09 06:49:01;;;;;;;2.08;1.27;;;;;;;13.45;50.94;99063.00;3515554;28;20130;-71
2021/05/09 06:50:41;;;;;;;2.08;1.40;;;;;;;13.44;51.07;99066.75;3509548;28;20044;-71
2021/05/09 06:52:23;;;;;;;3.40;1.02;;;;;;;13.42;50.93;99064.28;3517480;28;20134;-70
2021/05/09 06:54:04;;;;;;;1.10;0.98;;;;;;;13.39;50.69;99058.56;3515820;28;20134;-70
2021/05/09 06:55:49;;;;;;;2.07;1.30;;;;;;;13.34;50.90;99069.97;3515415;28;20586;-71
2021/05/09 06:57:29;;;;;;;2.45;0.98;;;;;;;13.34;50.81;99061.13;3516963;28;20046;-71
2021/05/09 06:59:10;;;;;;;4.22;2.97;;;;;;;13.39;50.91;99072.78;3515698;28;20044;-71
2021/05/09 07:00:51;;;;;;;3.90;1.50;;;;;;;13.38;50.84;99073.84;3519359;28;20059;-72
2021/05/09 07:02:32;;;;;;;1.50;1.20;;;;;;;13.38;50.74;99084.53;3521709;28;20028;-70
2021/05/09 07:04:12;;;;;;;1.38;1.00;;;;;;;13.34;50.88;99088.69;3522120;28;20133;-71
2021/05/09 07:06:01;;;;;;;0.75;0.75;;;;;;;13.36;51.00;99093.84;3518934;28;20040;-71
2021/05/09 07:07:49;;;;;;;1.08;0.82;;;;;;;13.35;51.03;99093.03;3521136;28;20084;-72
2021/05/09 07:09:30;;;;;;;2.65;1.73;;;;;;;13.29;51.09;99109.97;3514820;27;20639;-72
2021/05/09 07:11:13;;;;;;;1.58;1.42;;;;;;;13.26;51.23;99108.56;3519323;27;20106;-71
2021/05/09 07:12:55;;;;;;;4.47;1.08;;;;;;;13.14;51.15;99104.16;3511345;28;20579;-73
2021/05/09 07:14:35;;;;;;;2.03;1.05;;;;;;;13.14;51.24;99125.56;3515100;28;20035;-72
2021/05/09 07:16:16;;;;;;;0.80;0.80;;;;;;;13.08;51.40;99128.09;3524652;28;20092;-71
2021/05/09 07:18:08;;;;;;;1.40;0.85;;;;;;;13.06;51.47;99134.72;3521032;28;20457;-73
2021/05/09 07:19:49;;;;;;;3.00;0.93;;;;;;;13.13;51.76;99140.81;3518017;28;20551;-72
2021/05/09 07:21:36;;;;;;;3.75;1.13;;;;;;;13.27;51.49;99136.97;3516020;28;20069;-71
2021/05/09 07:23:16;;;;;;;0.93;0.88;;;;;;;13.40;51.19;99137.81;3520618;28;20421;-71
2021/05/09 07:24:59;;;;;;;3.53;0.82;;;;;;;13.44;51.00;99152.41;3511692;28;20028;-71
2021/05/09 07:26:40;;;;;;;1.30;0.80;;;;;;;13.44;50.98;99155.88;3510913;28;20036;-72
2021/05/09 07:28:21;;;;;;;2.22;0.90;;;;;;;13.45;50.94;99141.47;3510518;28;20567;-71
2021/05/09 07:30:02;;;;;;;0.85;0.65;;;;;;;13.53;50.97;99140.34;3511997;28;20039;-71
2021/05/09 07:31:43;;;;;;;1.02;0.85;;;;;;;13.61;50.89;99153.41;3517564;28;20047;-72
2021/05/09 07:33:25;;;;;;;1.90;1.80;;;;;;;13.61;50.67;99149.91;3525551;28;20464;-71
2021/05/09 07:35:06;;;;;;;2.03;1.10;;;;;;;13.53;50.71;99157.22;3524845;28;20040;-71
2021/05/09 07:36:47;;;;;;;2.58;1.48;;;;;;;13.49;50.95;99150.69;3511142;28;20044;-70
2021/05/09 07:38:28;;;;;;;2.13;1.45;;;;;;;13.41;51.03;99152.88;3511599;28;20425;-71
2021/05/09 07:40:10;;;;;;;1.27;1.17;;;;;;;13.42;51.18;99149.13;3511141;28;20043;-72
2021/05/09 07:41:50;;;;;;;5.75;1.00;;;;;;;13.52;51.33;99147.53;3511460;28;20046;-71
2021/05/09 07:43:32;;;;;;;1.85;1.23;;;;;;;13.70;51.01;99153.91;3511110;28;20079;-70
2021/05/09 07:45:23;;;;;;;1.33;1.23;;;;;;;13.68;50.74;99164.00;3511185;28;20495;-73
2021/05/09 07:47:04;;;;;;;1.48;1.23;;;;;;;13.66;50.52;99174.16;3514718;28;20061;-70
2021/05/09 07:48:46;;;;;;;3.65;1.20;;;;;;;13.59;50.80;99162.72;3524446;27;20135;-71
2021/05/09 07:50:28;;;;;;;1.95;0.90;;;;;;;13.54;50.89;99174.09;3521080;28;20046;-71
2021/05/09 07:52:08;;;;;;;1.73;1.25;;;;;;;13.51;51.13;99170.00;3521154;28;20031;-72
2021/05/09 07:53:49;;;;;;;0.93;0.70;;;;;;;13.54;51.06;99166.06;3524810;28;20047;-70
2021/05/09 07:55:30;;;;;;;3.47;1.08;;;;;;;13.55;50.81;99177.59;3524749;28;20047;-70
2021/05/09 07:57:11;;;;;;;1.02;0.93;;;;;;;13.59;51.10;99178.78;3524910;28;20036;-71
2021/05/09 07:58:52;;;;;;;0.98;0.90;;;;;;;13.62;50.70;99172.97;3525107;28;20139;-72